Latest Weather Observations for Frankston Beach

IDV60901

Issued at 7:41 pm EDT Saturday 10 December 2022 (issued every 10 minutes, with the page automatically refreshed every 10 minutes)

About weather observations | Map of Melbourne area stations | Latest observations for Melbourne area | Other Formats
Station Details ID: 086371 Name: FRANKSTON BEACH Lat: -38.15 Lon: 145.12 Height: 6.0 m
Data from the previous 72 hours. | See also: Recent months at Frankston Beach
Date/Time
EDT
Temp
°C
App
Temp
°C
Dew
Point
°C
Rel
Hum
%
Delta-T
°C
Wind Press
QNH
hPa
Press
MSL
hPa
Rain since
9am
mm
Dir  Spd
km/h
Gust
km/h
Spd
kts
Gust
kts
10/07:30pm - - - - - SE 13 20 7 11 - - -
10/07:00pm - - - - - SE 13 17 7 9 - - -
10/06:30pm - - - - - SSE 13 24 7 13 - - -
10/06:00pm - - - - - SE 13 19 7 10 - - -
10/05:30pm - - - - - SSW 9 15 5 8 - - -
10/05:00pm - - - - - WSW 17 19 9 10 - - -
10/04:30pm - - - - - WSW 19 20 10 11 - - -
10/04:00pm - - - - - WSW 22 24 12 13 - - -
10/03:30pm - - - - - WSW 17 20 9 11 - - -
10/03:00pm - - - - - WSW 13 15 7 8 - - -
10/02:30pm - - - - - WSW 17 19 9 10 - - -
10/02:00pm - - - - - WSW 19 20 10 11 - - -
10/01:30pm - - - - - WSW 15 17 8 9 - - -
10/01:00pm - - - - - WSW 11 13 6 7 - - -
10/12:30pm - - - - - WSW 11 13 6 7 - - -
10/12:00pm - - - - - W 9 13 5 7 - - -
10/11:30am - - - - - WNW 11 13 6 7 - - -
10/11:00am - - - - - WNW 9 11 5 6 - - -
10/10:30am - - - - - WNW 9 11 5 6 - - -
10/10:00am - - - - - NNW 11 13 6 7 - - -
10/09:30am - - - - - NNW 9 13 5 7 - - -
10/09:00am - - - - - NNE 9 13 5 7 - - -
10/08:30am - - - - - E 11 17 6 9 - - -
10/08:00am - - - - - E 11 19 6 10 - - -
10/07:30am - - - - - ENE 13 24 7 13 - - -
10/07:00am - - - - - ESE 9 17 5 9 - - -
10/06:30am - - - - - E 7 11 4 6 - - -
10/06:00am - - - - - ESE 6 7 3 4 - - -
10/05:30am - - - - - SE 2 7 1 4 - - -
10/05:00am - - - - - SE 6 9 3 5 - - -
10/04:30am - - - - - SE 7 13 4 7 - - -
10/04:00am - - - - - ESE 7 13 4 7 - - -
10/03:30am - - - - - ESE 9 17 5 9 - - -
10/03:00am - - - - - SE 9 15 5 8 - - -
10/02:30am - - - - - SE 9 15 5 8 - - -
10/02:00am - - - - - SE 9 13 5 7 - - -
10/01:30am - - - - - SE 11 17 6 9 - - -
10/01:00am - - - - - SE 9 15 5 8 - - -
10/12:30am - - - - - SE 11 17 6 9 - - -
10/12:00am - - - - - SE 11 17 6 9 - - -
 
Date/Time
EDT
Temp
°C
App
Temp
°C
Dew
Point
°C
Rel
Hum
%
Delta-T
°C
Wind Press
QNH
hPa
Press
MSL
hPa
Rain since
9am
mm
Dir  Spd
km/h
Gust
km/h
Spd
kts
Gust
kts
09/11:30pm - - - - - SE 11 19 6 10 - - -
09/11:00pm - - - - - SE 11 19 6 10 - - -
09/10:30pm - - - - - SE 11 17 6 9 - - -
09/10:00pm - - - - - SE 13 20 7 11 - - -
09/09:30pm - - - - - SSE 15 28 8 15 - - -
09/09:00pm - - - - - SSE 11 19 6 10 - - -
09/08:30pm - - - - - SSE 13 20 7 11 - - -
09/08:00pm - - - - - SSE 13 24 7 13 - - -
09/07:30pm - - - - - SSE 17 28 9 15 - - -
09/07:00pm - - - - - SSE 17 30 9 16 - - -
09/06:30pm - - - - - SSE 15 26 8 14 - - -
09/06:00pm - - - - - S 19 28 10 15 - - -
09/05:30pm - - - - - SSE 13 26 7 14 - - -
09/05:00pm - - - - - SSE 15 26 8 14 - - -
09/04:30pm - - - - - S 19 33 10 18 - - -
09/04:00pm - - - - - SSE 19 32 10 17 - - -
09/03:30pm - - - - - S 19 33 10 18 - - -
09/03:00pm - - - - - S 17 32 9 17 - - -
09/02:30pm - - - - - SSE 15 26 8 14 - - -
09/02:00pm - - - - - SSE 11 20 6 11 - - -
09/01:30pm - - - - - SE 13 28 7 15 - - -
09/01:00pm - - - - - SSW 15 28 8 15 - - -
09/12:30pm - - - - - S 13 24 7 13 - - -
09/12:00pm - - - - - S 15 24 8 13 - - -
09/11:30am - - - - - S 15 26 8 14 - - -
09/11:00am - - - - - SSW 17 28 9 15 - - -
09/10:30am - - - - - SSW 13 20 7 11 - - -
09/10:00am - - - - - SSE 13 19 7 10 - - -
09/09:30am - - - - - SSW 13 20 7 11 - - -
09/09:00am - - - - - S 11 20 6 11 - - -
09/08:30am - - - - - SSW 19 26 10 14 - - -
09/08:00am - - - - - S 9 17 5 9 - - -
09/07:30am - - - - - S 9 17 5 9 - - -
09/07:00am - - - - - SSE 9 17 5 9 - - -
09/06:30am - - - - - S 9 15 5 8 - - -
09/06:00am - - - - - S 7 13 4 7 - - -
09/05:30am - - - - - S 9 13 5 7 - - -
09/05:00am - - - - - S 7 13 4 7 - - -
09/04:30am - - - - - S 7 9 4 5 - - -
09/04:00am - - - - - SSW 7 9 4 5 - - -
09/03:30am - - - - - SSW 9 11 5 6 - - -
09/03:00am - - - - - S 7 9 4 5 - - -
09/02:30am - - - - - SSW 9 11 5 6 - - -
09/02:00am - - - - - SSW 11 15 6 8 - - -
09/01:30am - - - - - SSW 13 15 7 8 - - -
09/01:00am - - - - - SSW 9 11 5 6 - - -
09/12:30am - - - - - SSW 9 11 5 6 - - -
09/12:00am - - - - - SSW 11 15 6 8 - - -
 
Date/Time
EDT
Temp
°C
App
Temp
°C
Dew
Point
°C
Rel
Hum
%
Delta-T
°C
Wind Press
QNH
hPa
Press
MSL
hPa
Rain since
9am
mm
Dir  Spd
km/h
Gust
km/h
Spd
kts
Gust
kts
08/11:30pm - - - - - SSW 11 19 6 10 - - -
08/11:00pm - - - - - SSW 11 15 6 8 - - -
08/10:30pm - - - - - SSW 15 24 8 13 - - -
08/10:00pm - - - - - SSW 9 15 5 8 - - -
08/09:30pm - - - - - SSW 11 19 6 10 - - -
08/09:00pm - - - - - SSW 17 28 9 15 - - -
08/08:30pm - - - - - SSW 19 30 10 16 - - -
08/08:00pm - - - - - SSW 24 33 13 18 - - -
08/07:30pm - - - - - SW 26 37 14 20 - - -
08/07:08pm - - - - - SW 28 50 15 27 - - -
08/07:00pm - - - - - SW 30 41 16 22 - - -
08/06:30pm - - - - - SW 39 50 21 27 - - -
08/06:00pm - - - - - SW 33 46 18 25 - - -
08/05:30pm - - - - - SW 33 44 18 24 - - -
08/05:00pm - - - - - WSW 37 44 20 24 - - -
08/04:30pm - - - - - SW 39 50 21 27 - - -
08/04:00pm - - - - - SW 39 48 21 26 - - -
08/03:30pm - - - - - SW 32 37 17 20 - - -
08/03:00pm - - - - - SW 48 56 26 30 - - -
08/02:30pm - - - - - WSW 35 50 19 27 - - -
08/02:00pm - - - - - SW 37 54 20 29 - - -
08/01:30pm - - - - - WSW 41 50 22 27 - - -
08/01:00pm - - - - - WSW 37 48 20 26 - - -
08/12:43pm - - - - - SW 28 46 15 25 - - -
08/12:30pm - - - - - SW 33 50 18 27 - - -
08/12:03pm - - - - - SW 37 56 20 30 - - -
08/12:00pm - - - - - SW 33 50 18 27 - - -
08/11:52am - - - - - SW 32 50 17 27 - - -
08/11:30am - - - - - WSW 30 39 16 21 - - -
08/11:08am - - - - - SSW 32 50 17 27 - - -
08/11:00am - - - - - SW 33 46 18 25 - - -
08/10:30am - - - - - SW 37 50 20 27 - - -
08/10:00am - - - - - SW 35 44 19 24 - - -
08/09:30am - - - - - SSW 28 39 15 21 - - -
08/09:00am - - - - - SW 20 35 11 19 - - -
08/08:30am - - - - - SW 22 32 12 17 - - -
08/08:00am - - - - - S 15 22 8 12 - - -
08/07:30am - - - - - SSW 19 28 10 15 - - -
08/07:00am - - - - - S 15 24 8 13 - - -
08/06:55am - - - - - S 15 22 8 12 - - -
08/06:34am - - - - - SW 28 56 15 30 - - -
08/06:33am - - - - - SW 28 56 15 30 - - -
08/06:30am - - - - - SW 20 35 11 19 - - -
08/06:00am - - - - - SSW 22 39 12 21 - - -
08/05:30am - - - - - SSW 22 30 12 16 - - -
08/05:00am - - - - - SSW 24 37 13 20 - - -
08/04:30am - - - - - SW 32 48 17 26 - - -
08/04:13am - - - - - SW 24 59 13 32 - - -
08/04:00am - - - - - SSW 20 30 11 16 - - -
08/03:30am - - - - - SSW 20 30 11 16 - - -
08/03:05am - - - - - SW 35 54 19 29 - - -
08/03:00am - - - - - SW 35 48 19 26 - - -
08/02:53am - - - - - SW 28 48 15 26 - - -
08/02:30am - - - - - SSW 19 30 10 16 - - -
08/02:12am - - - - - WSW 43 57 23 31 - - -
08/02:00am - - - - - SW 37 65 20 35 - - -
08/01:30am - - - - - SW 33 52 18 28 - - -
08/01:05am - - - - - SW 33 50 18 27 - - -
08/01:00am - - - - - SW 41 54 22 29 - - -
08/12:30am - - - - - SW 39 56 21 30 - - -
08/12:09am - - - - - SW 33 52 18 28 - - -
08/12:00am - - - - - SW 30 46 16 25 - - -
 
Date/Time
EDT
Temp
°C
App
Temp
°C
Dew
Point
°C
Rel
Hum
%
Delta-T
°C
Wind Press
QNH
hPa
Press
MSL
hPa
Rain since
9am
mm
Dir  Spd
km/h
Gust
km/h
Spd
kts
Gust
kts
07/11:33pm - - - - - SW 39 57 21 31 - - -
07/11:30pm - - - - - SW 43 57 23 31 - - -
07/11:00pm - - - - - WSW 44 67 24 36 - - -
07/10:30pm - - - - - SW 43 65 23 35 - - -
07/10:00pm - - - - - SW 35 54 19 29 - - -
07/09:30pm - - - - - SW 52 87 28 47 - - -
07/09:24pm - - - - - SW 48 87 26 47 - - -
07/09:07pm - - - - - SW 37 57 20 31 - - -
07/09:00pm - - - - - SW 33 48 18 26 - - -
07/08:35pm - - - - - SW 52 74 28 40 - - -
07/08:30pm - - - - - SW 48 63 26 34 - - -
07/08:01pm - - - - - WSW 52 80 28 43 - - -
07/08:00pm - - - - - WSW 50 67 27 36 - - -
07/07:46pm - - - - - SW 52 70 28 38 - - -

Latest Capital City Observations: Canberra | Sydney | Melbourne | Brisbane | Adelaide | Perth | Hobart | Darwin

Other formats

Comma delimited format used in spreadsheet applications
http://www.bom.gov.au/fwo/IDV60901/IDV60901.94871.axf

JavaScript Object Notation format (JSON) in row-major order
http://www.bom.gov.au/fwo/IDV60901/IDV60901.94871.json

Data quality

Most of these data are generated automatically and are frequently updated. Quality checks on data are not normally performed. It is possible for incorrect values to appear. Refer to information at About Latest Weather Observations and please check the disclaimer before using these data.